• Join FlightAware (Why Join?)
  • Login
  • US Flag 
03:21PM EST


 

Airport Tracker/Info


-or-


 

Live Flight TrackerFlight Track Log ✈ N911PS ✈ 20-Aug-2014 ✈ N68 - 2G9

Flight Track Log - Related Links

Times and Time Zones

All times are in EDT time to prevent confusion due to time zone crossing. See the N911PS flight status page for this flight to view local times or setup timezone preferences in your user account.

Time Position Orientation Groundspeed Altitude Reporting Facility
EDT Latitude Longitude Course Direction KTS MPH feet Rate Location/Type
02:54PM 39.9914 -77.7200 276° West 111 128 5,400  Level Cleveland Center
02:55PM 39.9936 -77.7522 275° West 99 114 5,900 300 Climbing Cleveland Center
02:56PM 39.9956 -77.7875 274° West 98 113 6,100 60 Climbing Cleveland Center
02:57PM 39.9833 -77.8465 270° West  Level FlightAware Approximate
02:57PM 39.9978 -77.8356 273° West 101 116 6,100  Level Cleveland Center
02:58PM 39.9833 -77.8894 270° West  Level FlightAware Approximate
02:58PM 39.9975 -77.8750 269° West 111 128 6,100  Level Cleveland Center
02:59PM 39.9868 -77.9307 276° West  Level FlightAware Approximate
02:59PM 39.9936 -77.9247 264° West 117 135 6,100  Level Cleveland Center
03:00PM 39.9878 -77.9653 259° West 117 135 6,100  Level Cleveland Center
03:01PM 39.9817 -78.0092 260° West 114 131 6,100  Level Cleveland Center
03:02PM 39.9769 -78.0469 261° West 117 135 6,100  Level Cleveland Center
03:03PM 39.9689 -78.0947 258° West 113 130 6,100  Level Cleveland Center
03:04PM 39.9703 -78.1331 273° West 108 124 6,100  Level Cleveland Center
03:05PM 39.9711 -78.1767 271° West 114 131 6,100  Level Cleveland Center
03:06PM 39.9739 -78.2233 274° West 123 142 6,100  Level Cleveland Center
03:07PM 39.9772 -78.2644 276° West 122 140 6,100  Level Cleveland Center
03:08PM 39.9803 -78.3058 276° West 119 137 6,100  Level Cleveland Center
03:08PM 39.9817 -78.3144 282° West 118 136 6,100  Level Cleveland Center
03:09PM 39.9831 -78.3497 273° West 123 142 6,100  Level Cleveland Center
03:09PM 39.9850 -78.3586 286° West 119 137 6,100  Level Cleveland Center
03:10PM 39.9881 -78.3939 276° West 125 144 6,100  Level Cleveland Center
03:10PM 39.9894 -78.4044 280° West 123 142 6,100  Level Cleveland Center
03:11PM 39.9931 -78.4408 277° West 124 143 6,100  Level Cleveland Center
03:11PM 39.9944 -78.4481 284° West 124 143 6,100  Level Cleveland Center
03:12PM 39.9958 -78.4850 273° West 123 142 6,100  Level Cleveland Center
03:12PM 39.9989 -78.4919 300° West 124 143 6,100  Level Cleveland Center
03:13PM 40.0008 -78.5292 274° West 124 143 6,100  Level Cleveland Center
03:13PM 40.0044 -78.5461 286° West 123 142 6,100  Level Cleveland Center
03:14PM 40.0078 -78.5736 279° West 127 146 6,100  Level Cleveland Center
03:14PM 40.0111 -78.5906 284° West 124 143 6,100  Level Cleveland Center
03:15PM 40.0125 -78.6181 274° West 129 148 6,100  Level Cleveland Center
03:15PM 40.0131 -78.6361 272° West 125 144 6,100  Level Cleveland Center
03:16PM 40.0131 -78.6669 270° West 126 145 6,100  Level Cleveland Center
03:16PM 40.0136 -78.6817 273° West 125 144 6,100 -420 Level Cleveland Center
03:17PM 40.0186 -78.7219 279° West 119 137 5,500 -780 Descending Cleveland Center
03:18PM 40.0250 -78.7753 279° West 119 137 4,600 -480 Descending Cleveland Center
03:19PM 40.0281 -78.8147 276° West 114 131 4,600 -300 Level Cleveland Center
03:20PM 40.0422 -78.8597 292° West 130 150 4,000 -600 Descending Cleveland Center
03:21PM 40.0508 -78.9131 282° West 141 162 3,400 -360 Descending Cleveland Center
03:22PM 40.0592 -78.9611 283° West 143 165 3,300 -120 Descending Cleveland Center
03:24PM 40.0379 -78.9931 229° Southwest  Level FlightAware Approximate